createdAt,value
2023-09-29T00:14:50.674Z,5.17
2023-09-29T00:29:53.132Z,4.20
2023-09-29T00:44:55.087Z,4.07
2023-09-29T00:59:58.048Z,3.87
2023-09-29T01:14:59.975Z,4.07
2023-09-29T01:30:01.758Z,4.30
2023-09-29T01:45:06.101Z,3.90
2023-09-29T02:00:12.214Z,4.17
2023-09-29T02:15:17.071Z,3.60
2023-09-29T02:30:19.027Z,4.00
2023-09-29T02:45:20.867Z,3.50
2023-09-29T03:00:28.342Z,4.10
2023-09-29T03:15:31.149Z,3.87
2023-09-29T03:30:33.111Z,3.73
2023-09-29T03:45:38.075Z,3.20
2023-09-29T04:00:40.043Z,3.47
2023-09-29T04:15:41.839Z,4.03
2023-09-29T04:30:43.631Z,4.43
2023-09-29T04:45:45.419Z,4.60
2023-09-29T05:00:47.272Z,4.03
2023-09-29T05:15:49.778Z,5.33
2023-09-29T05:30:55.906Z,5.60
2023-09-29T05:45:57.768Z,6.47
2023-09-29T06:01:09.144Z,6.83
2023-09-29T06:16:10.946Z,5.80
2023-09-29T06:31:12.687Z,6.43
2023-09-29T06:46:14.461Z,5.17
2023-09-29T07:01:16.328Z,7.30
2023-09-29T07:16:19.573Z,6.07
2023-09-29T07:31:22.009Z,4.63
2023-09-29T07:46:24.154Z,5.63
2023-09-29T08:01:25.982Z,4.00
2023-09-29T08:16:28.230Z,4.80
2023-09-29T08:31:30.116Z,3.10
2023-09-29T08:46:35.617Z,3.63
2023-09-29T09:01:40.121Z,3.10
2023-09-29T09:16:42.921Z,3.08
2023-09-29T09:31:50.982Z,2.80
2023-09-29T09:47:05.474Z,3.85
2023-09-29T10:02:12.369Z,4.32
2023-09-29T10:17:14.472Z,4.55
2023-09-29T10:32:16.491Z,4.45
2023-09-29T10:47:18.614Z,4.05
2023-09-29T11:02:20.567Z,4.28
2023-09-29T11:17:22.380Z,5.28
2023-09-29T11:32:24.255Z,4.85
2023-09-29T11:47:26.116Z,5.20
2023-09-29T12:02:28.486Z,4.22
2023-09-29T12:17:30.431Z,4.30
2023-09-29T12:32:32.273Z,3.55
2023-09-29T12:47:34.071Z,3.58
2023-09-29T13:02:36.188Z,3.63
2023-09-29T13:17:37.953Z,3.03
2023-09-29T13:32:39.824Z,3.55
2023-09-29T13:47:42.203Z,3.30
2023-09-29T14:02:44.486Z,4.40
2023-09-29T14:17:47.035Z,3.83
2023-09-29T14:32:49.403Z,4.07
2023-09-29T14:47:51.290Z,4.07
2023-09-29T15:02:53.171Z,3.55
2023-09-29T15:17:55.111Z,3.92
2023-09-29T15:32:57.125Z,4.60
2023-09-29T15:47:59.188Z,4.70
2023-09-29T16:03:00.999Z,4.47
2023-09-29T16:18:02.879Z,4.70
2023-09-29T16:33:05.238Z,4.70
2023-09-29T16:48:07.538Z,5.33
2023-09-29T17:03:09.503Z,6.93
2023-09-29T17:18:11.481Z,7.20
2023-09-29T17:33:13.492Z,5.80
2023-09-29T17:48:29.896Z,7.37
2023-09-29T18:03:37.346Z,8.60
2023-09-29T18:18:39.491Z,6.73
2023-09-29T18:33:42.400Z,6.77
2023-09-29T18:48:45.416Z,7.63
2023-09-29T19:03:47.966Z,9.27
2023-09-29T19:18:51.569Z,8.30
2023-09-29T19:33:57.545Z,8.00
2023-09-29T19:49:00.091Z,7.57
2023-09-29T20:04:03.743Z,7.30
2023-09-29T20:19:06.478Z,7.40
2023-09-29T20:34:08.928Z,8.37
2023-09-29T20:49:10.827Z,7.07
2023-09-29T21:04:13.219Z,7.57
2023-09-29T21:19:15.083Z,7.20
2023-09-29T21:34:16.950Z,7.17
2023-09-29T21:49:20.059Z,6.97
2023-09-29T22:04:22.246Z,5.83
2023-09-29T22:19:24.106Z,6.40
2023-09-29T22:34:26.540Z,5.80
2023-09-29T22:49:31.726Z,6.23
2023-09-29T23:04:33.542Z,5.83
2023-09-29T23:19:36.225Z,5.83
2023-09-29T23:34:38.838Z,5.60
2023-09-29T23:49:40.735Z,5.97
